Colby, KS

8:28 AM CDT on April 30, 2017 (GMT -0500)
Shaltz

Weather History for KCBK - December, 2012

Change the Weather History Date:

Wednesday, December 5, 2012

  Actual Average (KGLD) Record (KGLD)
Temperature  
Mean Temperature 47 °F -  
Max Temperature 62 °F 46 °F 75 °F (1939)
Min Temperature 32 °F 20 °F -8 °F (1972)
Degree Days  
Heating Degree Days 18    
Moisture  
Dew Point 29 °F    
Average Humidity 52    
Maximum Humidity 75    
Minimum Humidity 34    
Precipitation  
Precipitation 0.00 in - - ()
Sea Level Pressure  
Sea Level Pressure 29.99 in    
Wind  
Wind Speed 11 mph (South)    
Max Wind Speed 22 mph    
Max Gust Speed 25 mph    
Visibility 10 miles    
Events      
Averages and records for this station are not official NWS values.
T = Trace of Precipitation, MM = Missing Value Source: NWS Daily Summary

Daily Weather History Graph

Daily Weather History Graph

Search for Another Location

Airport or City:

Trip Planner

Search our weather history database for the weather conditions in past years. The results will help you decide how hot, cold, wet, or windy it might be!

Date:

Astronomy

Dec. 05, 2012 Rise Set
Actual Time 7:49 AM CST 5:20 PM CST
Civil Twilight 7:19 AM CST 5:50 PM CST
Nautical Twilight 6:46 AM CST 6:23 PM CST
Astronomical Twilight 6:13 AM CST 6:56 PM CST
Moon No Moon Rise 12:15 PM CST (12/5)
Length of Visible Light 10h 30m
Length of Day
9h 30m
Waning Gibbous, 59% of the Moon is Illuminated
Dec 5
Waning Gibbous
Dec 6
Last Quarter
Dec 13
New
Dec 19
First Quarter
Dec 28
Full

Hourly Weather History & Observations

Time (CST) Temp. Windchill Dew Point Humidity Pressure Visibility Wind Dir Wind Speed Gust Speed Precip Events Conditions
12:15 AM 37.4 °F 31.4 °F 21.2 °F 52% 30.20 in 10.0 mi South 8.1 mph - N/A   Clear
12:35 AM 37.4 °F 31.4 °F 21.2 °F 52% 30.19 in 10.0 mi South 8.1 mph - N/A   Clear
12:55 AM 37.4 °F 31.4 °F 21.2 °F 52% 30.19 in 10.0 mi SSW 8.1 mph - N/A   Clear
1:15 AM 35.6 °F 29.9 °F 23.0 °F 60% 30.18 in 10.0 mi SSW 6.9 mph - N/A   Clear
1:35 AM 35.6 °F 30.7 °F 23.0 °F 60% 30.19 in 10.0 mi SSW 5.8 mph - N/A   Clear
1:55 AM 35.6 °F 29.9 °F 23.0 °F 60% 30.18 in 10.0 mi South 6.9 mph - N/A   Clear
2:15 AM 35.6 °F 30.7 °F 23.0 °F 60% 30.18 in 10.0 mi SSE 5.8 mph - N/A   Clear
2:35 AM 37.4 °F 31.4 °F 24.8 °F 60% 30.18 in 10.0 mi South 8.1 mph - N/A   Clear
2:55 AM 37.4 °F 32.1 °F 26.6 °F 65% 30.17 in 10.0 mi South 6.9 mph - N/A   Clear
3:15 AM 35.6 °F 30.7 °F 26.6 °F 70% 30.16 in 10.0 mi SSW 5.8 mph - N/A   Clear
3:35 AM 33.8 °F 27.7 °F 24.8 °F 70% 30.17 in 10.0 mi WSW 6.9 mph - N/A   Clear
3:55 AM 33.8 °F 28.6 °F 26.6 °F 75% 30.17 in 10.0 mi South 5.8 mph - N/A   Clear
4:15 AM 32.0 °F 27.5 °F 24.8 °F 75% 30.16 in 10.0 mi South 4.6 mph - N/A   Clear
4:35 AM 33.8 °F 27.7 °F 24.8 °F 70% 30.14 in 10.0 mi South 6.9 mph - N/A   Clear
4:55 AM 35.6 °F 28.6 °F 26.6 °F 70% 30.13 in 10.0 mi South 9.2 mph - N/A   Clear
5:15 AM 35.6 °F 28.6 °F 26.6 °F 70% 30.14 in 10.0 mi SSW 9.2 mph - N/A   Clear
5:35 AM 33.8 °F 27.7 °F 24.8 °F 70% 30.14 in 10.0 mi SSW 6.9 mph - N/A   Clear
5:55 AM 33.8 °F 26.4 °F 26.6 °F 75% 30.12 in 10.0 mi SSW 9.2 mph - N/A   Clear
6:15 AM 35.6 °F 27.5 °F 26.6 °F 70% 30.11 in 10.0 mi South 11.5 mph - N/A   Clear
6:35 AM 35.6 °F 27.5 °F 26.6 °F 70% 30.10 in 10.0 mi South 11.5 mph - N/A   Clear
6:55 AM 35.6 °F 28.0 °F 26.6 °F 70% 30.12 in 10.0 mi SSW 10.4 mph - N/A   Clear
8:55 AM 37.4 °F 29.3 °F 30.2 °F 75% 30.09 in 10.0 mi SW 12.7 mph - N/A   Clear
9:15 AM 41.0 °F 34.3 °F 30.2 °F 65% 30.08 in 10.0 mi SW 11.5 mph - N/A   Clear
9:35 AM 42.8 °F 37.0 °F 32.0 °F 66% 30.08 in 10.0 mi SSW 10.4 mph - N/A   Clear
9:55 AM 44.6 °F 38.8 °F 32.0 °F 61% 30.07 in 10.0 mi South 11.5 mph - N/A   Clear
10:15 AM 46.4 °F 41.9 °F 32.0 °F 57% 30.07 in 10.0 mi SSW 9.2 mph - N/A   Clear
10:35 AM 48.2 °F - 30.2 °F 50% 30.07 in 10.0 mi South 13.8 mph - N/A   Clear
10:55 AM 51.8 °F - 30.2 °F 44% 30.05 in 10.0 mi South 12.7 mph - N/A   Clear
11:15 AM 53.6 °F - 30.2 °F 41% 30.03 in 10.0 mi South 18.4 mph - N/A   Clear
11:35 AM 53.6 °F - 30.2 °F 41% 30.02 in 10.0 mi South 18.4 mph - N/A   Clear
11:55 AM 55.4 °F - 32.0 °F 41% 30.00 in 10.0 mi South 15.0 mph 20.7 mph N/A   Clear
12:15 PM 55.4 °F - 32.0 °F 41% 29.98 in 10.0 mi South 21.9 mph 25.3 mph N/A   Clear
12:35 PM 55.4 °F - 32.0 °F 41% 29.97 in 10.0 mi SSW 18.4 mph 25.3 mph N/A   Clear
1:15 PM 57.2 °F - 32.0 °F 38% 29.94 in 10.0 mi South 16.1 mph 21.9 mph N/A   Clear
1:35 PM 59.0 °F - 32.0 °F 36% 29.92 in 10.0 mi South 11.5 mph 19.6 mph N/A   Clear
1:55 PM 59.0 °F - 32.0 °F 36% 29.92 in 10.0 mi South 17.3 mph 21.9 mph N/A   Clear
2:15 PM 59.0 °F - 32.0 °F 36% 29.91 in 10.0 mi South 17.3 mph - N/A   Clear
2:35 PM 59.0 °F - 32.0 °F 36% 29.90 in 10.0 mi South 16.1 mph 23.0 mph N/A   Clear
2:55 PM 59.0 °F - 32.0 °F 36% 29.89 in 10.0 mi South 13.8 mph 19.6 mph N/A   Clear
3:15 PM 59.0 °F - 32.0 °F 36% 29.88 in 10.0 mi South 19.6 mph - N/A   Clear
3:35 PM 60.8 °F - 32.0 °F 34% 29.88 in 10.0 mi South 16.1 mph 24.2 mph N/A   Clear
3:55 PM 62.6 °F - 33.8 °F 34% 29.87 in 10.0 mi South 18.4 mph 23.0 mph N/A   Clear
4:15 PM 60.8 °F - 33.8 °F 36% 29.87 in 10.0 mi South 17.3 mph 24.2 mph N/A   Clear
4:35 PM 59.0 °F - 33.8 °F 39% 29.88 in 10.0 mi South 15.0 mph - N/A   Clear
4:55 PM 59.0 °F - 32.0 °F 36% 29.87 in 10.0 mi South 15.0 mph 21.9 mph N/A   Clear
5:15 PM 57.2 °F - 32.0 °F 38% 29.86 in 10.0 mi South 13.8 mph 20.7 mph N/A   Clear
5:35 PM 55.4 °F - 32.0 °F 41% 29.86 in 10.0 mi South 13.8 mph - N/A   Clear
5:55 PM 53.6 °F - 32.0 °F 44% 29.85 in 10.0 mi South 16.1 mph - N/A   Clear
6:15 PM 53.6 °F - 32.0 °F 44% 29.85 in 10.0 mi South 12.7 mph 17.3 mph N/A   Clear
6:35 PM 53.6 °F - 32.0 °F 44% 29.84 in 10.0 mi South 17.3 mph - N/A   Clear
6:55 PM 53.6 °F - 32.0 °F 44% 29.84 in 10.0 mi South 18.4 mph 21.9 mph N/A   Clear
7:15 PM 51.8 °F - 30.2 °F 44% 29.84 in 10.0 mi South 16.1 mph 21.9 mph N/A   Clear
7:35 PM 51.8 °F - 30.2 °F 44% 29.84 in 10.0 mi South 17.3 mph 24.2 mph N/A   Clear
7:55 PM 51.8 °F - 30.2 °F 44% 29.84 in 10.0 mi South 15.0 mph 19.6 mph N/A   Clear
8:15 PM 50.0 °F - 30.2 °F 47% 29.84 in 10.0 mi South 15.0 mph - N/A   Clear
8:35 PM 50.0 °F - 30.2 °F 47% 29.84 in 10.0 mi South 15.0 mph 20.7 mph N/A   Clear
8:55 PM 50.0 °F - 30.2 °F 47% 29.84 in 10.0 mi South 13.8 mph 19.6 mph N/A   Clear
9:15 PM 50.0 °F - 30.2 °F 47% 29.83 in 10.0 mi South 15.0 mph 19.6 mph N/A   Clear
9:35 PM 50.0 °F - 30.2 °F 47% 29.82 in 10.0 mi South 13.8 mph - N/A   Clear
9:55 PM 48.2 °F - 30.2 °F 50% 29.82 in 10.0 mi South 11.5 mph - N/A   Clear
10:15 PM 50.0 °F - 30.2 °F 47% 29.81 in 10.0 mi South 11.5 mph - N/A   Clear
10:35 PM 48.2 °F - 30.2 °F 50% 29.81 in 10.0 mi South 11.5 mph - N/A   Clear
10:55 PM 46.4 °F 41.5 °F 30.2 °F 53% 29.80 in 10.0 mi South 10.4 mph - N/A   Clear
11:15 PM 46.4 °F 43.5 °F 30.2 °F 53% 29.81 in 10.0 mi South 5.8 mph - N/A   Clear
11:35 PM 44.6 °F 40.7 °F 30.2 °F 57% 29.81 in 10.0 mi South 6.9 mph - N/A   Clear
11:55 PM 44.6 °F 41.4 °F 30.2 °F 57% 29.82 in 10.0 mi SW 5.8 mph - N/A   Clear